Time;durP1;ratioP1;P1;durP2;ratioP2;P2;SDS_P1;SDS_P2;PMS_P1;PMS_P2;Temp;Humidity;BMP_temperature;BMP_pressure;BME280_temperature;BME280_humidity;BME280_pressure;Samples;Min_cycle;Max_cycle;Signal;HPM_P1;HPM_P2
2023/09/14 00:00:13;;;;;;;7.18;2.35;;;;;;;15.00;100.00;102199.13;5005914;28;20113;-87
2023/09/14 00:02:38;;;;;;;4.13;2.22;;;;;;;14.94;100.00;102189.34;5004671;28;20032;-87
2023/09/14 00:05:05;;;;;;;6.65;2.50;;;;;;;15.01;100.00;102209.19;4994011;28;20484;-87
2023/09/14 00:07:30;;;;;;;9.52;2.25;;;;;;;15.00;100.00;102207.59;4985325;28;20503;-86
2023/09/14 00:09:56;;;;;;;3.90;2.17;;;;;;;14.95;100.00;102214.34;4990812;28;20076;-86
2023/09/14 00:12:21;;;;;;;4.60;2.80;;;;;;;14.95;100.00;102210.72;4997619;28;20065;-87
2023/09/14 00:14:47;;;;;;;10.32;2.40;;;;;;;14.88;100.00;102211.41;4968018;28;20133;-87
2023/09/14 00:17:12;;;;;;;5.07;3.03;;;;;;;14.93;100.00;102199.81;4976397;28;20037;-87
2023/09/14 00:19:37;;;;;;;6.68;2.35;;;;;;;14.92;100.00;102206.63;4981976;28;20036;-86
2023/09/14 00:22:03;;;;;;;4.78;2.95;;;;;;;14.76;100.00;102192.69;4989778;28;20125;-87
2023/09/14 00:24:29;;;;;;;7.68;2.10;;;;;;;14.79;100.00;102191.91;4985335;28;20030;-87
2023/09/14 00:26:54;;;;;;;4.60;1.98;;;;;;;14.82;100.00;102208.09;4985065;28;20855;-86
2023/09/14 00:29:20;;;;;;;3.20;2.13;;;;;;;14.78;100.00;102187.47;4981591;28;20030;-87
2023/09/14 00:31:45;;;;;;;4.30;2.10;;;;;;;14.86;100.00;102208.13;4983013;28;20118;-87
2023/09/14 00:34:10;;;;;;;3.55;2.05;;;;;;;14.70;100.00;102188.53;4985206;28;20042;-87
2023/09/14 00:36:36;;;;;;;3.60;1.77;;;;;;;14.83;100.00;102204.06;4983160;28;20030;-87
2023/09/14 00:39:01;;;;;;;6.50;2.83;;;;;;;14.80;100.00;102204.84;4997589;28;20149;-86
2023/09/14 00:41:27;;;;;;;4.57;1.83;;;;;;;14.73;100.00;102203.88;4988544;28;20030;-86
2023/09/14 00:43:52;;;;;;;5.22;1.90;;;;;;;14.70;100.00;102205.44;4979705;28;20034;-86
2023/09/14 00:46:17;;;;;;;4.90;1.90;;;;;;;14.78;100.00;102207.22;4992326;28;20034;-87
2023/09/14 00:48:43;;;;;;;3.30;1.80;;;;;;;14.73;100.00;102206.69;4980929;28;20022;-86
2023/09/14 00:51:09;;;;;;;6.20;1.70;;;;;;;14.74;100.00;102211.97;4990341;28;20029;-86
2023/09/14 00:53:34;;;;;;;5.10;2.28;;;;;;;14.71;100.00;102206.25;4984472;28;20064;-86
2023/09/14 00:56:01;;;;;;;4.38;2.05;;;;;;;14.67;100.00;102211.81;4984108;28;20030;-86
2023/09/14 00:58:27;;;;;;;4.05;2.40;;;;;;;14.63;100.00;102196.84;4981930;28;20042;-86
2023/09/14 01:00:52;;;;;;;7.50;2.00;;;;;;;14.63;100.00;102196.84;4977311;28;20080;-87
2023/09/14 01:03:18;;;;;;;4.82;2.30;;;;;;;14.57;100.00;102204.00;4979785;28;20173;-87
2023/09/14 01:05:45;;;;;;;4.60;2.08;;;;;;;14.57;100.00;102204.00;4978826;28;20532;-87
2023/09/14 01:08:10;;;;;;;5.88;2.45;;;;;;;14.54;100.00;102210.34;4996930;28;20038;-86
2023/09/14 01:10:36;;;;;;;6.70;2.03;;;;;;;14.48;100.00;102192.09;4985846;28;20497;-86
2023/09/14 01:13:01;;;;;;;3.10;2.28;;;;;;;14.52;100.00;102202.25;4991836;28;20030;-86
2023/09/14 01:15:38;;;;;;;6.32;2.20;;;;;;;14.56;100.00;102211.63;4979188;28;20117;-88
2023/09/14 01:18:21;;;;;;;2.38;1.67;;;;;;;14.53;100.00;102211.53;4979827;28;20559;-88
2023/09/14 01:21:11;;;;;;;4.28;2.05;;;;;;;14.44;100.00;102201.31;4988338;28;20065;-89
2023/09/14 01:23:48;;;;;;;6.97;2.90;;;;;;;14.46;100.00;102205.75;5005893;28;20636;-89
2023/09/14 01:26:15;;;;;;;6.28;2.78;;;;;;;14.42;100.00;102200.06;5001002;28;20573;-86
2023/09/14 01:28:41;;;;;;;4.18;2.58;;;;;;;14.36;100.00;102193.91;5002286;28;20501;-86
2023/09/14 01:31:06;;;;;;;4.55;2.65;;;;;;;14.41;100.00;102204.84;4987049;28;20063;-86
2023/09/14 01:33:32;;;;;;;7.00;2.60;;;;;;;14.39;100.00;102193.16;5003831;28;20112;-86
2023/09/14 01:36:26;;;;;;;5.20;2.38;;;;;;;14.40;100.00;102197.59;4998786;28;20375;-87
2023/09/14 01:38:54;;;;;;;5.50;2.25;;;;;;;14.35;100.00;102194.28;4987356;28;20128;-87
2023/09/14 01:41:21;;;;;;;3.95;2.17;;;;;;;14.34;100.00;102193.47;4982071;28;20030;-88
2023/09/14 01:43:51;;;;;;;3.72;2.47;;;;;;;14.36;100.00;102202.34;5004948;28;20034;-88
2023/09/14 01:46:17;;;;;;;6.50;2.38;;;;;;;14.30;100.00;102195.38;5002952;28;20045;-88
2023/09/14 01:48:44;;;;;;;4.00;1.90;;;;;;;14.26;100.00;102191.69;4980452;28;20026;-88
2023/09/14 01:51:09;;;;;;;3.20;1.92;;;;;;;14.23;100.00;102179.16;4980106;28;20037;-88
2023/09/14 01:53:35;;;;;;;4.25;1.60;;;;;;;14.29;100.00;102196.56;5000088;28;20490;-88
2023/09/14 01:56:00;;;;;;;3.70;2.10;;;;;;;14.17;100.00;102188.28;5000921;28;20568;-88
2023/09/14 01:58:26;;;;;;;5.03;1.90;;;;;;;14.19;100.00;102188.72;4979488;28;20038;-89
2023/09/14 02:00:52;;;;;;;5.97;1.85;;;;;;;14.11;100.00;102170.06;4999270;28;20052;-88
2023/09/14 02:03:17;;;;;;;3.70;1.70;;;;;;;14.17;100.00;102183.47;4982288;28;20033;-88
2023/09/14 02:05:43;;;;;;;10.15;2.22;;;;;;;14.16;100.00;102189.47;4993357;28;20133;-89
2023/09/14 02:08:08;;;;;;;3.90;2.13;;;;;;;14.12;100.00;102185.75;5005704;28;20033;-87
2023/09/14 02:10:34;;;;;;;6.32;2.03;;;;;;;14.04;100.00;102173.56;4978922;28;20773;-88
2023/09/14 02:12:59;;;;;;;2.38;1.63;;;;;;;14.08;100.00;102173.59;5005778;28;20112;-88
2023/09/14 02:15:24;;;;;;;4.35;1.90;;;;;;;14.10;100.00;102186.13;4981913;28;20068;-88
2023/09/14 02:17:51;;;;;;;6.85;3.13;;;;;;;14.02;100.00;102167.47;5000582;28;20069;-88
2023/09/14 02:20:16;;;;;;;3.72;1.73;;;;;;;13.94;100.00;102162.88;5005333;28;20030;-88
2023/09/14 02:22:42;;;;;;;4.97;2.00;;;;;;;13.96;100.00;102164.13;4983722;28;20041;-88
2023/09/14 02:25:07;;;;;;;4.70;1.75;;;;;;;14.07;100.00;102177.63;4985009;28;20029;-88
2023/09/14 02:27:34;;;;;;;2.42;2.00;;;;;;;13.99;100.00;102176.66;5003080;28;20092;-88
2023/09/14 02:30:00;;;;;;;3.03;1.52;;;;;;;13.94;100.00;102163.69;4985494;28;20041;-88
2023/09/14 02:32:25;;;;;;;9.55;2.50;;;;;;;13.89;100.00;102161.16;4997141;28;20678;-88
2023/09/14 02:34:50;;;;;;;3.70;2.15;;;;;;;13.96;100.00;102172.56;4986150;28;20038;-88
2023/09/14 02:37:16;;;;;;;2.28;1.58;;;;;;;13.91;100.00;102166.41;5002617;28;20033;-88
2023/09/14 02:39:41;;;;;;;2.78;1.95;;;;;;;13.87;100.00;102152.28;5006551;28;20030;-88
2023/09/14 02:42:07;;;;;;;4.95;1.88;;;;;;;13.92;100.00;102168.88;4979363;28;20124;-88
2023/09/14 02:44:32;;;;;;;4.22;1.60;;;;;;;13.89;100.00;102161.16;4987475;28;20040;-87
2023/09/14 02:46:57;;;;;;;3.70;1.80;;;;;;;13.88;100.00;102170.78;4983614;28;20076;-89
2023/09/14 02:49:23;;;;;;;5.53;2.25;;;;;;;13.81;100.00;102159.38;4986218;28;20455;-88
2023/09/14 02:51:48;;;;;;;3.80;1.73;;;;;;;13.88;100.00;102167.97;4988084;28;20116;-87
2023/09/14 02:54:14;;;;;;;5.18;1.73;;;;;;;13.89;100.00;102166.78;4986005;28;20117;-89
2023/09/14 02:56:41;;;;;;;5.90;2.72;;;;;;;13.78;100.00;102160.13;4988336;28;20063;-88
2023/09/14 02:59:06;;;;;;;4.15;1.90;;;;;;;13.77;100.00;102164.13;4984179;28;20030;-88
2023/09/14 03:01:32;;;;;;;2.45;1.65;;;;;;;13.79;100.00;102167.38;4985673;28;20080;-88
2023/09/14 03:03:58;;;;;;;2.60;2.05;;;;;;;13.71;100.00;102157.16;4988919;28;20142;-88
2023/09/14 03:06:24;;;;;;;3.15;1.67;;;;;;;13.63;100.00;102154.16;4981204;28;20451;-88
2023/09/14 03:08:49;;;;;;;3.38;1.63;;;;;;;13.62;100.00;102149.75;4984235;28;20044;-88
2023/09/14 03:11:15;;;;;;;3.35;1.58;;;;;;;13.74;100.00;102165.66;5003667;28;20112;-89
2023/09/14 03:13:41;;;;;;;5.47;1.48;;;;;;;13.73;100.00;102166.03;4994253;28;20056;-88
2023/09/14 03:16:06;;;;;;;3.65;2.35;;;;;;;13.68;100.00;102155.06;5001596;28;20029;-88
2023/09/14 03:18:31;;;;;;;3.42;1.80;;;;;;;13.61;100.00;102153.72;4996041;28;20037;-88
2023/09/14 03:20:57;;;;;;;2.80;1.88;;;;;;;13.60;100.00;102157.72;4989658;28;20052;-88
2023/09/14 03:23:23;;;;;;;5.20;1.90;;;;;;;13.54;100.00;102150.75;4985576;28;20151;-88
2023/09/14 03:25:49;;;;;;;5.03;1.98;;;;;;;13.66;100.00;102180.78;5003328;28;20037;-87
2023/09/14 03:28:16;;;;;;;3.67;2.22;;;;;;;13.68;100.00;102180.38;4976832;28;20018;-88
2023/09/14 03:30:41;;;;;;;3.90;2.00;;;;;;;13.62;100.00;102169.44;5003845;28;20096;-88
2023/09/14 03:33:10;;;;;;;3.75;1.63;;;;;;;13.57;100.00;102178.13;4982485;28;20120;-88
2023/09/14 03:35:36;;;;;;;4.00;2.00;;;;;;;13.62;100.00;102185.50;5003577;28;20558;-87
2023/09/14 03:38:02;;;;;;;3.90;2.00;;;;;;;13.58;100.00;102176.97;5003088;28;20037;-88
2023/09/14 03:40:28;;;;;;;3.83;2.00;;;;;;;13.56;100.00;102176.53;4987779;28;20044;-87
2023/09/14 03:42:53;;;;;;;4.80;2.08;;;;;;;13.56;100.00;102182.16;4985491;28;20109;-88
2023/09/14 03:45:18;;;;;;;2.88;1.63;;;;;;;13.55;100.00;102180.50;4979357;28;20058;-89
2023/09/14 03:47:49;;;;;;;4.22;2.20;;;;;;;13.47;100.00;102161.03;4982487;28;20116;-87
2023/09/14 03:50:15;;;;;;;4.82;1.85;;;;;;;13.50;100.00;102178.00;5009817;28;20060;-88
2023/09/14 03:52:40;;;;;;;5.47;2.10;;;;;;;13.52;100.00;102177.63;4985695;28;20030;-89
2023/09/14 03:55:07;;;;;;;4.10;2.17;;;;;;;13.51;100.00;102164.72;4995627;28;20026;-89
2023/09/14 03:57:32;;;;;;;6.90;2.40;;;;;;;13.48;100.00;102163.47;5008456;28;20498;-88
2023/09/14 03:59:58;;;;;;;4.10;2.15;;;;;;;13.46;100.00;102165.03;4990332;28;20038;-88
2023/09/14 04:02:24;;;;;;;4.15;1.88;;;;;;;13.43;100.00;102166.59;4990538;28;20490;-88
2023/09/14 04:04:49;;;;;;;3.78;1.90;;;;;;;13.48;100.00;102174.72;4991215;28;20505;-88
2023/09/14 04:07:16;;;;;;;3.38;2.20;;;;;;;13.44;100.00;102167.38;5008120;28;20399;-89
2023/09/14 04:09:41;;;;;;;3.70;2.35;;;;;;;13.39;100.00;102165.69;4989157;28;20045;-88
2023/09/14 04:12:07;;;;;;;4.82;2.05;;;;;;;13.39;100.00;102162.88;4986086;28;20394;-89
2023/09/14 04:14:33;;;;;;;3.00;1.85;;;;;;;13.37;100.00;102159.63;5005081;28;20470;-88
2023/09/14 04:17:00;;;;;;;4.22;2.35;;;;;;;13.38;100.00;102158.41;4985579;28;20095;-88
2023/09/14 04:19:27;;;;;;;4.53;2.25;;;;;;;13.39;100.00;102162.88;4986125;28;20041;-89
2023/09/14 04:21:52;;;;;;;4.22;1.70;;;;;;;13.37;100.00;102157.59;4998929;28;20112;-89
2023/09/14 04:24:18;;;;;;;4.45;2.05;;;;;;;13.30;100.00;102163.06;4997351;28;20280;-88
2023/09/14 04:26:43;;;;;;;3.33;1.83;;;;;;;13.32;100.00;102162.69;4999639;28;20049;-88
2023/09/14 04:29:10;;;;;;;2.17;1.63;;;;;;;13.29;100.00;102160.63;4981499;28;20049;-88
2023/09/14 04:31:36;;;;;;;7.07;2.70;;;;;;;13.28;100.00;102158.94;5001209;28;20037;-88
2023/09/14 04:34:01;;;;;;;3.72;1.67;;;;;;;13.23;100.00;102149.59;4979960;28;22069;-88
2023/09/14 04:36:26;;;;;;;6.22;2.45;;;;;;;13.28;100.00;102167.38;4989184;28;20060;-89
2023/09/14 04:38:52;;;;;;;5.05;1.98;;;;;;;13.25;100.00;102173.75;4981858;28;20029;-88
2023/09/14 04:41:17;;;;;;;4.63;2.22;;;;;;;13.23;100.00;102174.09;4987840;28;20490;-88
2023/09/14 04:43:42;;;;;;;2.05;1.63;;;;;;;13.13;100.00;102154.97;5003830;28;20052;-89
2023/09/14 04:46:08;;;;;;;5.03;2.40;;;;;;;13.19;100.00;102176.81;4978016;28;20076;-88
2023/09/14 04:48:33;;;;;;;5.20;2.50;;;;;;;13.25;100.00;102185.00;4987018;28;20037;-89
2023/09/14 04:50:59;;;;;;;6.35;1.98;;;;;;;13.20;100.00;102181.28;4986295;28;20543;-88
2023/09/14 04:53:26;;;;;;;6.35;1.70;;;;;;;13.20;100.00;102178.47;4981435;28;20497;-88
2023/09/14 04:55:52;;;;;;;2.90;1.75;;;;;;;13.21;100.00;102182.09;4979027;28;20052;-88
2023/09/14 04:58:17;;;;;;;4.25;1.90;;;;;;;13.11;100.00;102183.47;5000514;28;20042;-88
2023/09/14 05:00:43;;;;;;;2.85;1.63;;;;;;;13.12;100.00;102195.53;5002393;28;20018;-90
2023/09/14 05:03:08;;;;;;;2.85;1.50;;;;;;;13.07;100.00;102176.94;4985528;28;20399;-88
2023/09/14 05:05:34;;;;;;;4.35;2.03;;;;;;;13.15;100.00;102201.22;4976625;28;20030;-89
2023/09/14 05:07:59;;;;;;;3.45;1.85;;;;;;;13.08;100.00;102189.81;4985258;28;20048;-89
2023/09/14 05:10:26;;;;;;;3.58;2.15;;;;;;;13.08;100.00;102189.00;4985237;28;20251;-88
2023/09/14 05:12:52;;;;;;;6.32;2.72;;;;;;;13.07;100.00;102196.63;4981426;28;20030;-88
2023/09/14 05:15:17;;;;;;;5.13;2.10;;;;;;;13.06;100.00;102191.34;4989159;28;20033;-88
2023/09/14 05:17:43;;;;;;;3.75;1.80;;;;;;;13.08;100.00;102201.03;4989905;28;20466;-89
2023/09/14 05:20:10;;;;;;;8.25;2.22;;;;;;;13.10;100.00;102197.88;4983757;28;20129;-88
2023/09/14 05:22:37;;;;;;;4.30;2.20;;;;;;;13.06;100.00;102200.59;5003341;28;20038;-88
2023/09/14 05:25:03;;;;;;;7.28;1.85;;;;;;;13.02;100.00;102191.25;4980321;28;20168;-89
2023/09/14 05:27:34;;;;;;;3.30;2.05;;;;;;;13.05;100.00;102196.16;4980379;28;20029;-88
2023/09/14 05:29:59;;;;;;;2.47;1.90;;;;;;;13.06;100.00;102194.97;4998611;28;20026;-88
2023/09/14 05:32:25;;;;;;;3.28;1.92;;;;;;;13.07;100.00;102185.38;4979978;28;20150;-87
2023/09/14 05:34:50;;;;;;;4.55;2.95;;;;;;;12.91;100.00;102173.31;4998516;28;20117;-88
2023/09/14 05:37:15;;;;;;;3.33;2.78;;;;;;;13.06;100.00;102191.34;4993506;28;20102;-88
2023/09/14 05:39:41;;;;;;;5.15;2.80;;;;;;;13.04;100.00;102194.53;5001139;28;20405;-88
2023/09/14 05:42:06;;;;;;;3.28;2.40;;;;;;;13.10;100.00;102193.06;4994895;28;20033;-88
2023/09/14 05:44:32;;;;;;;2.97;1.85;;;;;;;12.98;100.00;102190.34;5000680;28;20212;-88
2023/09/14 05:46:57;;;;;;;3.67;2.30;;;;;;;13.05;100.00;102196.16;5000278;28;20041;-88
2023/09/14 05:49:23;;;;;;;3.13;1.70;;;;;;;13.04;100.00;102188.91;4999365;28;20139;-89
2023/09/14 05:51:48;;;;;;;5.18;2.40;;;;;;;13.12;100.00;102201.16;4981568;28;20021;-88
2023/09/14 05:54:13;;;;;;;3.40;1.92;;;;;;;12.96;100.00;102187.88;4978139;28;20044;-88
2023/09/14 05:56:39;;;;;;;3.30;2.08;;;;;;;13.00;100.00;102199.22;4999848;28;20034;-89
2023/09/14 05:59:04;;;;;;;5.72;2.38;;;;;;;13.03;100.00;102206.97;5001085;28;20130;-88
2023/09/14 06:01:30;;;;;;;3.78;2.28;;;;;;;13.01;100.00;102203.69;4978389;28;20037;-89
2023/09/14 06:03:55;;;;;;;6.65;2.45;;;;;;;13.10;100.00;102209.94;5000343;28;20500;-88
2023/09/14 06:06:21;;;;;;;5.90;2.40;;;;;;;13.16;100.00;102216.13;4989693;28;20038;-88
2023/09/14 06:08:46;;;;;;;4.28;3.05;;;;;;;13.59;100.00;102215.16;4994798;28;20390;-89
2023/09/14 06:11:11;;;;;;;6.88;2.75;;;;;;;13.63;100.00;102215.25;4993296;28;20040;-93
2023/09/14 06:13:37;;;;;;;6.63;3.10;;;;;;;13.46;100.00;102205.22;4981984;28;20075;-93
2023/09/14 06:16:03;;;;;;;5.40;3.00;;;;;;;13.51;100.00;102207.72;4974826;28;20121;-93
2023/09/14 06:18:40;;;;;;;7.30;2.72;;;;;;;14.53;100.00;102192.63;4985406;28;20043;-94
2023/09/14 06:21:06;;;;;;;4.10;2.30;;;;;;;16.21;100.00;102224.72;4991963;28;20061;-93
2023/09/14 06:23:32;;;;;;;5.82;2.85;;;;;;;14.38;100.00;102199.19;4972858;28;20035;-92
2023/09/14 06:25:57;;;;;;;4.82;2.85;;;;;;;13.58;100.00;102202.28;4998129;28;20069;-89
2023/09/14 06:28:22;;;;;;;5.35;3.38;;;;;;;13.34;100.00;102194.88;4991142;28;20027;-87
2023/09/14 06:30:48;;;;;;;6.43;2.35;;;;;;;13.35;100.00;102212.59;4985648;28;20529;-87
2023/09/14 06:33:13;;;;;;;5.45;3.50;;;;;;;13.27;100.00;102231.25;4986434;28;20022;-84
2023/09/14 06:35:38;;;;;;;5.35;2.50;;;;;;;13.11;100.00;102217.22;4980080;28;20113;-83
2023/09/14 06:38:04;;;;;;;3.38;2.58;;;;;;;13.31;100.00;102232.19;4985756;28;20112;-83
2023/09/14 06:40:35;;;;;;;6.30;2.08;;;;;;;13.38;100.00;102237.16;4980577;28;20042;-83
2023/09/14 06:43:01;;;;;;;7.33;2.90;;;;;;;13.33;100.00;102229.81;4984185;28;20074;-83
2023/09/14 06:45:26;;;;;;;5.43;2.83;;;;;;;13.34;100.00;102225.00;4990455;28;20113;-84
2023/09/14 06:47:52;;;;;;;4.57;3.15;;;;;;;13.35;100.00;102232.28;4989314;28;20030;-85
2023/09/14 06:50:17;;;;;;;4.60;2.25;;;;;;;13.35;100.00;102237.91;5002970;28;20081;-84
2023/09/14 06:52:42;;;;;;;5.22;2.50;;;;;;;13.35;100.00;102243.53;4997225;28;20033;-84
2023/09/14 06:55:08;;;;;;;5.80;2.53;;;;;;;13.38;100.00;102242.78;4994324;28;20133;-84
2023/09/14 06:57:33;;;;;;;4.50;2.25;;;;;;;13.37;100.00;102222.28;4995631;28;20026;-84
2023/09/14 07:00:00;;;;;;;3.08;1.95;;;;;;;13.37;100.00;102235.53;4991774;28;20030;-84
2023/09/14 07:02:26;;;;;;;7.45;2.70;;;;;;;13.37;100.00;102233.53;4990799;28;20136;-85
2023/09/14 07:04:52;;;;;;;5.00;2.75;;;;;;;13.22;100.00;102229.53;4996309;28;20108;-82
2023/09/14 07:07:17;;;;;;;5.93;2.33;;;;;;;13.14;100.00;102241.78;4992301;28;20455;-82
2023/09/14 07:09:43;;;;;;;3.75;2.80;;;;;;;13.19;100.00;102229.44;5001051;28;20023;-82
2023/09/14 07:12:08;;;;;;;7.22;2.70;;;;;;;13.29;100.00;102233.72;4989231;28;20031;-82
2023/09/14 07:14:34;;;;;;;6.10;2.67;;;;;;;13.17;100.00;102238.22;4999802;28;20038;-82
2023/09/14 07:16:59;;;;;;;3.75;2.38;;;;;;;13.23;100.00;102242.38;4999995;28;20029;-82
2023/09/14 07:19:26;;;;;;;16.98;4.10;;;;;;;13.47;100.00;102240.63;4984751;28;20176;-82
2023/09/14 07:21:54;;;;;;;3.85;2.25;;;;;;;13.26;100.00;102242.84;5000066;28;20458;-82
2023/09/14 07:24:23;;;;;;;6.00;3.05;;;;;;;13.21;100.00;102244.75;4987616;28;20129;-83
2023/09/14 07:26:49;;;;;;;7.93;2.13;;;;;;;13.46;100.00;102243.78;5002506;28;20393;-82
2023/09/14 07:29:15;;;;;;;6.68;3.03;;;;;;;13.34;100.00;102239.06;4993318;28;20032;-82
2023/09/14 07:31:40;;;;;;;9.85;3.03;;;;;;;13.56;100.00;102238.41;4985103;28;20040;-84
2023/09/14 07:34:07;;;;;;;6.93;2.55;;;;;;;13.52;100.00;102245.94;4982432;28;20038;-84
2023/09/14 07:36:33;;;;;;;12.88;3.13;;;;;;;13.70;100.00;102254.00;4996318;28;22375;-84
2023/09/14 07:38:59;;;;;;;5.50;2.55;;;;;;;13.70;100.00;102248.38;4975388;28;20033;-84
2023/09/14 07:41:26;;;;;;;7.13;2.45;;;;;;;13.51;100.00;102247.13;4995096;28;20034;-84
2023/09/14 07:43:52;;;;;;;5.80;2.90;;;;;;;13.49;100.00;102248.66;4992297;28;20030;-84
2023/09/14 07:46:17;;;;;;;5.38;2.28;;;;;;;13.52;100.00;102231.88;4999611;28;20490;-84
2023/09/14 07:48:43;;;;;;;6.22;2.63;;;;;;;13.74;100.00;102249.25;4976887;28;20025;-85
2023/09/14 07:51:08;;;;;;;4.70;2.72;;;;;;;13.68;100.00;102250.72;5000157;28;20083;-85
2023/09/14 07:53:33;;;;;;;3.80;2.25;;;;;;;13.73;100.00;102251.28;4982929;28;20026;-84
2023/09/14 07:55:59;;;;;;;12.73;3.10;;;;;;;13.69;100.00;102253.19;5001620;28;20029;-84
2023/09/14 07:58:24;;;;;;;6.78;3.15;;;;;;;13.60;100.00;102233.69;4979294;28;20040;-84
2023/09/14 08:00:49;;;;;;;7.70;2.22;;;;;;;13.83;100.00;102249.91;5001427;28;20030;-84
2023/09/14 08:03:15;;;;;;;5.85;2.80;;;;;;;13.98;100.00;102257.47;4986816;28;20038;-84
2023/09/14 08:05:41;;;;;;;4.57;2.53;;;;;;;13.93;100.00;102257.75;4999432;28;20200;-84
2023/09/14 08:08:08;;;;;;;5.25;2.17;;;;;;;13.99;100.00;102261.09;5001967;28;20553;-84
2023/09/14 08:10:34;;;;;;;6.53;2.80;;;;;;;13.99;100.00;102253.47;5002271;28;20085;-85
2023/09/14 08:13:00;;;;;;;5.43;2.72;;;;;;;14.06;100.00;102260.44;5004394;28;20398;-85
2023/09/14 08:15:26;;;;;;;9.80;4.57;;;;;;;14.14;100.00;102256.59;4998029;28;20101;-83
2023/09/14 08:17:51;;;;;;;9.35;2.78;;;;;;;14.15;100.00;102261.06;5002075;28;20495;-84
2023/09/14 08:20:17;;;;;;;8.73;1.95;;;;;;;14.20;100.00;102260.75;4987611;28;20180;-84
2023/09/14 08:22:42;;;;;;;5.60;2.63;;;;;;;14.30;100.00;102260.16;4972778;28;20038;-85
2023/09/14 08:25:10;;;;;;;5.80;1.90;;;;;;;14.34;100.00;102261.06;4982095;28;20088;-85
2023/09/14 08:27:39;;;;;;;9.95;2.40;;;;;;;14.40;100.00;102273.66;4996708;28;20054;-85
2023/09/14 08:30:07;;;;;;;7.20;3.70;;;;;;;14.46;100.00;102262.09;4996851;28;20108;-85
2023/09/14 08:32:32;;;;;;;5.10;2.25;;;;;;;14.52;100.00;102267.03;4973700;28;20034;-84
2023/09/14 08:35:18;;;;;;;6.10;2.42;;;;;;;14.56;100.00;102256.69;5002042;28;20061;-85
2023/09/14 08:37:43;;;;;;;5.55;2.08;;;;;;;14.83;100.00;102270.91;4994196;28;20037;-85
2023/09/14 08:40:13;;;;;;;4.03;1.95;;;;;;;14.93;100.00;102283.59;4981635;28;20129;-85
2023/09/14 08:42:40;;;;;;;7.38;2.20;;;;;;;14.95;100.00;102278.41;4994526;28;20087;-85
2023/09/14 08:45:10;;;;;;;4.07;2.33;;;;;;;15.13;100.00;102276.69;4997363;28;20060;-85
2023/09/14 08:47:39;;;;;;;7.60;2.03;;;;;;;15.25;100.00;102275.72;4979050;28;20631;-85
2023/09/14 08:50:06;;;;;;;6.28;2.45;;;;;;;15.29;100.00;102270.94;4971288;28;20141;-85
2023/09/14 08:52:34;;;;;;;5.57;2.15;;;;;;;15.19;100.00;102271.56;4994783;28;20045;-85
2023/09/14 08:55:01;;;;;;;5.20;2.50;;;;;;;15.27;100.00;102272.53;4997325;28;20397;-85
2023/09/14 08:57:27;;;;;;;6.22;2.47;;;;;;;15.22;100.00;102271.63;4987165;28;20048;-85
2023/09/14 08:59:59;;;;;;;6.75;2.10;;;;;;;15.30;100.00;102271.75;4974839;28;20402;-85
2023/09/14 09:02:27;;;;;;;6.25;2.25;;;;;;;15.35;100.00;102260.16;4996763;28;20401;-85
2023/09/14 09:04:52;;;;;;;5.47;1.80;;;;;;;15.25;100.00;102239.84;4992280;28;20553;-85
2023/09/14 09:07:20;;;;;;;5.78;2.03;;;;;;;15.39;100.00;102253.38;4996411;28;20037;-83
2023/09/14 09:09:49;;;;;;;7.10;2.72;;;;;;;15.54;100.00;102247.97;4968882;28;20057;-83
2023/09/14 09:12:14;;;;;;;6.90;2.33;;;;;;;15.74;100.00;102263.63;4966350;28;20029;-84
2023/09/14 09:14:41;;;;;;;4.53;2.40;;;;;;;15.65;100.00;102265.88;4978040;28;20055;-85
2023/09/14 09:17:06;;;;;;;11.63;2.75;;;;;;;15.66;100.00;102261.84;4970842;28;20034;-84
2023/09/14 09:19:46;;;;;;;4.25;1.90;;;;;;;15.76;97.20;102254.78;4977761;28;20102;-84
2023/09/14 09:22:11;;;;;;;3.15;2.03;;;;;;;15.96;98.36;102263.94;4969943;28;20034;-85
2023/09/14 09:24:38;;;;;;;6.65;2.08;;;;;;;15.92;98.32;102246.97;4967960;28;20036;-84
2023/09/14 09:27:23;;;;;;;8.02;1.92;;;;;;;16.19;98.20;102259.03;4963300;28;20065;-84
2023/09/14 09:29:57;;;;;;;5.10;2.05;;;;;;;16.08;97.75;102260.06;4976077;28;20094;-85
2023/09/14 09:32:22;;;;;;;11.35;2.25;;;;;;;16.16;97.20;102251.31;4975762;28;20954;-84
2023/09/14 09:34:47;;;;;;;6.85;1.80;;;;;;;16.08;97.75;102248.78;4984924;28;20090;-85
2023/09/14 09:37:13;;;;;;;8.13;2.45;;;;;;;16.24;95.69;102253.03;4984474;28;20089;-84
2023/09/14 09:39:40;;;;;;;6.05;2.30;;;;;;;16.22;93.04;102263.91;4985051;28;20034;-84
2023/09/14 09:42:08;;;;;;;5.43;2.03;;;;;;;16.61;92.73;102263.59;4975051;28;20364;-84
2023/09/14 09:44:34;;;;;;;8.27;2.88;;;;;;;16.58;93.33;102255.88;4980792;28;20129;-85
2023/09/14 09:47:00;;;;;;;7.00;1.80;;;;;;;16.36;89.14;102249.16;4983035;28;20116;-83
2023/09/14 09:49:28;;;;;;;7.15;1.63;;;;;;;16.43;89.62;102254.88;4985933;28;20621;-85
2023/09/14 09:51:54;;;;;;;5.55;2.05;;;;;;;16.50;89.42;102261.81;4996373;28;20027;-83
2023/09/14 09:54:21;;;;;;;3.50;1.58;;;;;;;16.59;90.85;102251.84;4971905;28;20042;-85
2023/09/14 09:56:46;;;;;;;6.95;2.35;;;;;;;16.75;89.49;102253.63;4985143;28;20081;-84
2023/09/14 09:59:14;;;;;;;4.32;1.60;;;;;;;16.77;90.84;102248.41;4991871;28;20348;-83
2023/09/14 10:01:43;;;;;;;12.98;3.35;;;;;;;16.78;88.23;102253.69;4968820;28;20035;-85
2023/09/14 10:04:15;;;;;;;9.63;2.17;;;;;;;16.73;87.52;102248.34;4974771;28;20026;-84
2023/09/14 10:06:48;;;;;;;6.35;1.48;;;;;;;16.85;91.74;102248.13;4978217;28;20088;-84
2023/09/14 10:09:14;;;;;;;4.75;1.75;;;;;;;16.85;86.35;102236.00;4984850;28;20030;-84
2023/09/14 10:11:40;;;;;;;3.65;1.63;;;;;;;17.28;88.70;102242.84;4985939;28;20810;-84
2023/09/14 10:14:08;;;;;;;3.92;1.58;;;;;;;16.92;87.27;102247.38;4977858;28;20050;-84
2023/09/14 10:16:44;;;;;;;4.75;1.67;;;;;;;17.01;91.40;102235.75;4983805;28;20052;-84
2023/09/14 10:19:11;;;;;;;3.20;2.15;;;;;;;17.14;90.55;102242.75;5003212;28;20511;-85
2023/09/14 10:21:37;;;;;;;3.20;1.77;;;;;;;17.26;88.02;102248.09;4980924;28;20045;-84
2023/09/14 10:24:06;;;;;;;5.97;2.17;;;;;;;17.18;87.68;102246.44;4981405;28;20034;-84
2023/09/14 10:26:37;;;;;;;2.75;1.27;;;;;;;18.94;100.00;102235.25;4979857;28;20022;-87
2023/09/14 10:29:05;;;;;;;4.40;1.73;;;;;;;19.94;99.10;102246.53;4986252;28;20494;-86
2023/09/14 10:31:32;;;;;;;4.35;1.50;;;;;;;19.57;96.21;102242.13;4988756;28;20172;-85
2023/09/14 10:33:59;;;;;;;3.45;1.55;;;;;;;20.22;93.59;102253.38;4986453;28;20534;-85
2023/09/14 10:36:30;;;;;;;2.92;1.60;;;;;;;19.89;83.41;102241.28;4992297;28;20042;-85
2023/09/14 10:38:57;;;;;;;5.95;1.60;;;;;;;19.28;86.80;102244.97;4993913;28;20978;-86
2023/09/14 10:41:22;;;;;;;10.20;2.30;;;;;;;19.59;85.28;102245.38;4991876;28;20426;-79
2023/09/14 10:43:48;;;;;;;3.95;1.50;;;;;;;18.60;84.00;102241.22;4980564;28;20121;-79
2023/09/14 10:46:18;;;;;;;5.78;1.50;;;;;;;18.35;85.27;102241.94;4990963;28;20045;-78
2023/09/14 10:48:44;;;;;;;8.00;2.03;;;;;;;18.16;84.81;102231.72;4998426;28;20031;-81
2023/09/14 10:51:11;;;;;;;5.97;1.67;;;;;;;18.05;85.59;102225.22;4981524;28;20506;-80
2023/09/14 10:53:40;;;;;;;5.97;1.65;;;;;;;17.93;85.92;102242.53;4995633;28;20554;-80
2023/09/14 10:56:21;;;;;;;3.25;1.67;;;;;;;18.03;87.12;102228.44;4979942;28;20058;-81
2023/09/14 10:58:51;;;;;;;7.15;1.58;;;;;;;18.34;85.10;102228.16;4978256;28;20049;-80
2023/09/14 11:01:24;;;;;;;7.15;1.77;;;;;;;18.20;84.12;102234.59;4977148;28;20041;-80
2023/09/14 11:04:19;;;;;;;3.83;1.70;;;;;;;18.25;83.92;102237.03;4997673;28;20101;-81
2023/09/14 11:06:52;;;;;;;5.13;2.05;;;;;;;18.12;82.61;102238.59;4986991;28;20042;-80
2023/09/14 11:09:20;;;;;;;4.38;1.63;;;;;;;18.04;84.57;102235.72;4984895;28;20030;-80
2023/09/14 11:11:48;;;;;;;4.82;1.40;;;;;;;17.86;85.04;102232.00;4975364;28;20069;-80
2023/09/14 11:14:14;;;;;;;4.70;1.73;;;;;;;17.87;89.14;102234.41;4976982;28;20146;-81
2023/09/14 11:16:54;;;;;;;5.15;1.75;;;;;;;17.74;87.17;102221.75;4984007;28;20033;-80